Time;durP1;ratioP1;P1;durP2;ratioP2;P2;SDS_P1;SDS_P2;PMS_P1;PMS_P2;Temp;Humidity;BMP_temperature;BMP_pressure;BME280_temperature;BME280_humidity;BME280_pressure;Samples;Min_cycle;Max_cycle;Signal;HPM_P1;HPM_P2
2021/06/07 00:00:22;;;;;;;4.53;2.80;;;18.30;99.90;;;;;;4955288;28;20027;-86
2021/06/07 00:02:49;;;;;;;8.50;2.55;;;18.30;99.90;;;;;;4962313;28;20090;-87
2021/06/07 00:05:16;;;;;;;6.97;3.22;;;18.30;99.90;;;;;;4970545;28;20035;-86
2021/06/07 00:07:42;;;;;;;6.85;3.17;;;18.30;99.90;;;;;;4956099;28;20024;-86
2021/06/07 00:10:11;;;;;;;5.47;2.90;;;18.20;99.90;;;;;;4955171;28;20113;-86
2021/06/07 00:12:38;;;;;;;8.75;3.15;;;18.20;99.90;;;;;;4956886;28;20059;-86
2021/06/07 00:15:10;;;;;;;6.93;2.90;;;18.20;99.90;;;;;;4964641;28;20047;-87
2021/06/07 00:17:36;;;;;;;7.45;3.45;;;18.20;99.90;;;;;;4977832;28;20007;-86
2021/06/07 00:20:12;;;;;;;7.00;3.05;;;18.20;99.90;;;;;;4982531;28;20019;-87
2021/06/07 00:22:38;;;;;;;7.32;3.03;;;18.20;99.90;;;;;;4984842;28;20035;-86
2021/06/07 00:25:06;;;;;;;6.78;2.70;;;18.10;99.90;;;;;;4979962;28;20015;-86
2021/06/07 00:27:32;;;;;;;7.53;3.00;;;18.10;99.90;;;;;;4981088;28;20016;-87
2021/06/07 00:29:58;;;;;;;8.38;2.80;;;18.10;99.90;;;;;;4983856;28;20027;-87
2021/06/07 00:32:23;;;;;;;7.68;2.85;;;18.00;99.90;;;;;;4981876;28;20068;-87
2021/06/07 00:34:49;;;;;;;7.43;2.80;;;18.10;99.90;;;;;;4979260;28;20046;-87
2021/06/07 00:37:15;;;;;;;4.85;2.80;;;18.00;99.90;;;;;;4978951;28;20055;-86
2021/06/07 00:39:41;;;;;;;6.28;3.17;;;18.00;99.90;;;;;;4978794;28;20034;-87
2021/06/07 00:42:07;;;;;;;7.07;3.25;;;17.90;99.90;;;;;;4981501;28;20031;-87
2021/06/07 00:44:33;;;;;;;9.90;3.22;;;17.90;99.90;;;;;;4979841;28;20038;-87
2021/06/07 00:46:58;;;;;;;6.50;3.20;;;17.90;99.90;;;;;;4955358;28;20023;-87
2021/06/07 00:49:25;;;;;;;7.43;3.15;;;17.80;99.90;;;;;;4955685;28;20035;-87
2021/06/07 00:51:50;;;;;;;5.72;2.88;;;17.80;99.90;;;;;;4955410;28;20078;-87
2021/06/07 00:54:16;;;;;;;7.63;3.25;;;17.70;99.90;;;;;;4956542;28;20039;-87
2021/06/07 00:56:44;;;;;;;8.90;3.05;;;17.70;99.90;;;;;;4955377;28;20062;-87
2021/06/07 00:59:10;;;;;;;9.35;3.53;;;17.70;99.90;;;;;;4957378;28;20049;-86
2021/06/07 01:01:36;;;;;;;6.57;3.30;;;17.60;99.90;;;;;;4955178;28;20041;-87
2021/06/07 01:04:03;;;;;;;8.05;3.30;;;17.60;99.90;;;;;;4939900;28;20119;-87
2021/06/07 01:06:29;;;;;;;8.50;3.42;;;17.60;99.90;;;;;;4953329;28;20027;-86
2021/06/07 01:08:56;;;;;;;7.53;3.55;;;17.50;99.90;;;;;;4957592;28;20062;-87
2021/06/07 01:11:22;;;;;;;7.25;3.15;;;17.50;99.90;;;;;;4953709;28;20038;-87
2021/06/07 01:13:49;;;;;;;8.68;3.25;;;17.50;99.90;;;;;;4959362;28;20475;-87
2021/06/07 01:16:15;;;;;;;7.40;3.28;;;17.50;99.90;;;;;;4952762;28;20054;-87
2021/06/07 01:18:41;;;;;;;5.93;3.42;;;17.40;99.90;;;;;;4960360;28;20019;-87
2021/06/07 01:21:16;;;;;;;5.13;2.97;;;17.40;99.90;;;;;;4952804;28;20492;-87
2021/06/07 01:23:44;;;;;;;7.82;3.10;;;17.40;99.90;;;;;;4956664;28;20083;-87
2021/06/07 01:26:11;;;;;;;6.45;3.38;;;17.40;99.90;;;;;;4952858;28;20081;-86
2021/06/07 01:28:38;;;;;;;5.95;3.58;;;17.30;99.90;;;;;;4941974;28;20034;-87
2021/06/07 01:31:05;;;;;;;10.07;3.80;;;17.40;99.90;;;;;;4959046;28;20384;-87
2021/06/07 01:33:31;;;;;;;7.13;3.00;;;17.40;99.90;;;;;;4959261;28;20019;-86
2021/06/07 01:36:00;;;;;;;7.35;3.00;;;17.30;99.90;;;;;;4953028;28;20023;-87
2021/06/07 01:38:26;;;;;;;5.78;3.00;;;17.30;99.90;;;;;;4955515;28;20073;-87
2021/06/07 01:40:59;;;;;;;6.47;3.30;;;17.30;99.90;;;;;;4952973;28;20065;-86
2021/06/07 01:43:26;;;;;;;7.40;3.08;;;17.30;99.90;;;;;;4957707;28;20046;-86
2021/06/07 01:45:52;;;;;;;8.00;3.72;;;17.20;99.90;;;;;;4952239;28;20023;-87
2021/06/07 01:48:20;;;;;;;6.55;3.85;;;17.20;99.90;;;;;;4955718;28;20035;-87
2021/06/07 01:50:47;;;;;;;5.90;3.53;;;17.10;99.90;;;;;;4952866;28;20106;-87
2021/06/07 01:53:15;;;;;;;5.80;3.60;;;17.10;99.90;;;;;;4955077;28;20039;-86
2021/06/07 01:55:44;;;;;;;5.57;3.40;;;17.00;99.90;;;;;;4954195;28;20043;-87
2021/06/07 01:58:11;;;;;;;9.48;3.60;;;17.00;99.90;;;;;;4954358;28;20042;-86
2021/06/07 02:01:00;;;;;;;5.93;3.42;;;17.00;99.90;;;;;;4970805;28;20055;-87
2021/06/07 02:03:26;;;;;;;9.80;4.05;;;17.00;99.90;;;;;;4957858;28;20039;-87
2021/06/07 02:06:01;;;;;;;7.55;3.38;;;17.00;99.90;;;;;;4952763;29;20031;-87
2021/06/07 02:08:31;;;;;;;6.40;3.80;;;16.90;99.90;;;;;;4959428;28;20027;-87
2021/06/07 02:11:06;;;;;;;9.10;3.95;;;16.90;99.90;;;;;;4951358;28;20024;-86
2021/06/07 02:13:32;;;;;;;6.68;3.83;;;16.90;99.90;;;;;;4958755;28;20031;-87
2021/06/07 02:16:01;;;;;;;6.13;3.40;;;16.90;99.90;;;;;;4952047;28;20106;-86
2021/06/07 02:18:28;;;;;;;7.60;3.78;;;16.90;99.90;;;;;;4960447;28;20107;-87
2021/06/07 02:20:55;;;;;;;9.95;4.00;;;16.80;99.90;;;;;;4951742;28;20043;-86
2021/06/07 02:23:21;;;;;;;6.43;4.00;;;16.80;99.90;;;;;;4955889;28;20042;-87
2021/06/07 02:25:47;;;;;;;8.95;3.80;;;16.80;99.90;;;;;;4966564;28;20024;-87
2021/06/07 02:28:17;;;;;;;11.55;3.67;;;16.70;99.90;;;;;;4960396;28;20061;-87
2021/06/07 02:30:43;;;;;;;7.43;4.05;;;16.70;99.90;;;;;;4954031;28;20102;-86
2021/06/07 02:33:09;;;;;;;5.60;3.90;;;16.70;99.90;;;;;;4965801;28;20063;-87
2021/06/07 02:35:35;;;;;;;6.93;3.90;;;16.70;99.90;;;;;;4955373;28;20051;-87
2021/06/07 02:38:02;;;;;;;6.53;3.85;;;16.60;99.90;;;;;;4965384;28;20027;-87
2021/06/07 02:40:29;;;;;;;6.97;3.50;;;16.60;99.90;;;;;;4956052;28;20301;-87
2021/06/07 02:42:56;;;;;;;5.60;3.65;;;16.60;99.90;;;;;;4956313;28;20090;-87
2021/06/07 02:45:23;;;;;;;8.82;4.40;;;16.60;99.90;;;;;;4958030;28;20019;-87
2021/06/07 02:47:51;;;;;;;7.10;4.38;;;16.60;99.90;;;;;;4958406;28;20035;-87
2021/06/07 02:50:23;;;;;;;9.00;4.10;;;16.50;99.90;;;;;;4958467;28;20028;-87
2021/06/07 02:52:49;;;;;;;7.45;4.45;;;16.60;99.90;;;;;;4958778;28;20035;-87
2021/06/07 02:55:20;;;;;;;9.05;4.25;;;16.50;99.90;;;;;;4958933;28;20023;-87
2021/06/07 02:57:48;;;;;;;7.00;3.88;;;16.50;99.90;;;;;;4957059;28;20054;-88
2021/06/07 03:00:17;;;;;;;8.85;3.63;;;16.50;99.90;;;;;;4959699;28;20392;-87
2021/06/07 03:02:43;;;;;;;10.40;4.28;;;16.50;99.90;;;;;;4963282;28;20039;-87
2021/06/07 03:05:09;;;;;;;7.70;4.43;;;16.50;99.90;;;;;;4954540;29;20020;-90
2021/06/07 03:07:35;;;;;;;8.65;4.18;;;16.50;99.90;;;;;;4956915;28;20035;-87
2021/06/07 03:10:00;;;;;;;6.70;4.10;;;16.50;99.90;;;;;;4944637;28;20093;-89
2021/06/07 03:12:26;;;;;;;7.95;4.35;;;16.50;99.90;;;;;;4962343;28;20063;-87
2021/06/07 03:14:52;;;;;;;10.90;4.63;;;16.50;99.90;;;;;;4959356;28;20042;-88
2021/06/07 03:17:17;;;;;;;6.22;4.25;;;16.40;99.90;;;;;;4958794;28;20118;-87
2021/06/07 03:19:44;;;;;;;8.02;4.65;;;16.40;99.90;;;;;;4958985;28;20079;-87
2021/06/07 03:22:10;;;;;;;6.70;3.75;;;16.40;99.90;;;;;;4959209;28;20065;-88
2021/06/07 03:24:36;;;;;;;7.00;4.30;;;16.40;99.90;;;;;;4954688;28;20519;-87
2021/06/07 03:27:03;;;;;;;9.85;4.78;;;16.30;99.90;;;;;;4963640;28;20083;-87
2021/06/07 03:29:29;;;;;;;8.45;5.15;;;16.30;99.90;;;;;;4961970;28;20019;-88
2021/06/07 03:31:54;;;;;;;7.65;4.57;;;16.20;99.90;;;;;;4956062;28;20106;-87
2021/06/07 03:34:20;;;;;;;6.40;4.15;;;16.20;99.90;;;;;;4962950;28;20023;-88
2021/06/07 03:36:46;;;;;;;8.73;4.72;;;16.20;99.90;;;;;;4956594;28;20109;-87
2021/06/07 03:39:11;;;;;;;9.13;5.55;;;16.20;99.90;;;;;;4962781;28;20034;-87
2021/06/07 03:41:37;;;;;;;8.55;4.85;;;16.10;99.90;;;;;;4954764;28;20093;-87
2021/06/07 03:44:03;;;;;;;10.75;5.05;;;16.10;99.90;;;;;;4956156;28;20070;-87
2021/06/07 03:46:29;;;;;;;5.72;4.20;;;16.10;99.90;;;;;;4956369;28;20118;-88
2021/06/07 03:48:55;;;;;;;5.93;4.65;;;16.10;99.90;;;;;;4957324;28;20075;-87
2021/06/07 03:51:20;;;;;;;8.30;4.75;;;16.10;99.90;;;;;;4955481;28;20055;-87
2021/06/07 03:53:46;;;;;;;7.78;4.80;;;16.10;99.90;;;;;;4964909;28;20023;-87
2021/06/07 03:56:12;;;;;;;6.32;4.68;;;16.00;99.90;;;;;;4954835;28;20054;-87
2021/06/07 03:58:37;;;;;;;6.18;4.45;;;16.00;99.90;;;;;;4955597;28;20099;-87
2021/06/07 04:01:03;;;;;;;7.10;5.18;;;16.00;99.90;;;;;;4953903;28;20039;-87
2021/06/07 04:03:29;;;;;;;7.20;4.90;;;15.90;99.90;;;;;;4963793;28;20509;-87
2021/06/07 04:05:54;;;;;;;7.95;4.93;;;15.90;99.90;;;;;;4954050;28;20031;-87
2021/06/07 04:08:20;;;;;;;7.32;5.03;;;15.90;99.90;;;;;;4964398;28;20026;-87
2021/06/07 04:10:46;;;;;;;8.90;4.97;;;15.80;99.90;;;;;;4953811;28;20118;-87
2021/06/07 04:13:13;;;;;;;5.88;5.22;;;15.80;99.90;;;;;;4956295;28;20062;-87
2021/06/07 04:15:38;;;;;;;8.90;4.95;;;15.80;99.90;;;;;;4954865;28;20126;-87
2021/06/07 04:18:04;;;;;;;12.88;5.25;;;15.80;99.90;;;;;;4956145;28;20584;-87
2021/06/07 04:20:32;;;;;;;10.88;5.82;;;15.80;99.90;;;;;;4956031;28;20396;-88
2021/06/07 04:22:58;;;;;;;10.30;4.97;;;15.80;99.90;;;;;;4955715;28;20057;-87
2021/06/07 04:25:26;;;;;;;6.72;5.10;;;15.80;99.90;;;;;;4964751;28;20513;-87
2021/06/07 04:27:52;;;;;;;7.13;5.50;;;15.70;99.90;;;;;;4955659;28;20075;-87
2021/06/07 04:30:19;;;;;;;8.27;5.03;;;15.70;99.90;;;;;;4948223;28;20055;-87
2021/06/07 04:32:47;;;;;;;8.65;4.75;;;15.80;99.90;;;;;;4956494;28;20034;-87
2021/06/07 04:35:14;;;;;;;8.70;5.60;;;15.80;99.90;;;;;;4959079;28;20026;-88
2021/06/07 04:37:49;;;;;;;9.10;5.38;;;15.80;99.90;;;;;;4957055;28;20027;-88
2021/06/07 04:40:20;;;;;;;6.82;4.70;;;15.70;99.90;;;;;;4954044;28;20027;-88
2021/06/07 04:42:46;;;;;;;9.02;5.80;;;15.80;99.90;;;;;;4958256;28;20403;-87
2021/06/07 04:45:13;;;;;;;8.90;6.32;;;15.80;99.90;;;;;;4953598;28;20031;-87
2021/06/07 04:47:38;;;;;;;9.32;5.95;;;15.80;99.90;;;;;;4957526;28;20027;-87
2021/06/07 04:50:07;;;;;;;9.20;5.13;;;15.80;99.90;;;;;;4953257;28;20039;-87
2021/06/07 04:52:34;;;;;;;7.57;5.30;;;15.80;99.90;;;;;;4957278;28;20023;-87
2021/06/07 04:55:00;;;;;;;7.07;5.28;;;15.80;99.90;;;;;;4953016;28;20054;-88
2021/06/07 04:57:26;;;;;;;9.82;5.60;;;15.80;99.90;;;;;;4957681;28;20055;-87
2021/06/07 04:59:51;;;;;;;7.32;5.00;;;15.80;99.90;;;;;;4953995;28;20031;-89
2021/06/07 05:02:17;;;;;;;8.90;5.75;;;15.90;99.90;;;;;;4956633;28;20447;-87
2021/06/07 05:04:43;;;;;;;6.80;4.97;;;15.90;99.90;;;;;;4954847;28;20027;-88
2021/06/07 05:07:08;;;;;;;8.70;5.13;;;15.90;99.90;;;;;;4954289;28;20030;-87
2021/06/07 05:09:34;;;;;;;9.95;5.90;;;15.90;99.90;;;;;;4957152;28;20085;-87
2021/06/07 05:12:00;;;;;;;10.48;5.50;;;15.90;99.90;;;;;;4955219;28;20032;-88
2021/06/07 05:14:25;;;;;;;6.72;5.50;;;16.00;99.90;;;;;;4957722;28;20043;-87
2021/06/07 05:16:51;;;;;;;6.82;5.30;;;16.00;99.90;;;;;;4955229;28;20023;-87
2021/06/07 05:19:19;;;;;;;10.13;5.68;;;16.10;99.90;;;;;;4959045;28;20023;-87
2021/06/07 05:21:44;;;;;;;8.45;4.90;;;16.10;99.90;;;;;;4954594;28;20110;-88
2021/06/07 05:24:11;;;;;;;8.88;5.15;;;16.20;99.90;;;;;;4955744;28;20126;-87
2021/06/07 05:26:37;;;;;;;8.93;5.45;;;16.20;99.90;;;;;;4953534;28;20030;-88
2021/06/07 05:29:03;;;;;;;7.60;5.10;;;16.30;99.90;;;;;;4967961;28;20026;-88
2021/06/07 05:31:28;;;;;;;7.85;5.25;;;16.40;99.90;;;;;;4958610;28;20497;-87
2021/06/07 05:33:54;;;;;;;9.88;5.10;;;16.50;99.90;;;;;;4953331;28;20029;-90
2021/06/07 05:36:20;;;;;;;7.72;4.97;;;16.60;99.90;;;;;;4952181;28;20034;-89
2021/06/07 05:38:45;;;;;;;8.85;4.90;;;16.70;99.90;;;;;;4962627;28;20407;-88
2021/06/07 05:41:13;;;;;;;9.30;5.18;;;16.80;99.90;;;;;;4953172;28;20041;-88
2021/06/07 05:43:39;;;;;;;7.25;4.68;;;16.90;99.90;;;;;;4952533;28;20047;-89
2021/06/07 05:46:05;;;;;;;9.10;4.95;;;17.00;99.90;;;;;;4951984;28;20475;-88
2021/06/07 05:48:30;;;;;;;7.03;5.13;;;17.10;99.90;;;;;;4955326;28;20078;-88
2021/06/07 05:50:56;;;;;;;7.53;5.00;;;17.10;99.90;;;;;;4948983;29;20479;-88
2021/06/07 05:53:22;;;;;;;8.73;4.82;;;17.20;99.90;;;;;;4954203;28;20369;-88
2021/06/07 05:55:48;;;;;;;7.10;4.72;;;17.30;99.90;;;;;;4950807;29;20090;-88
2021/06/07 05:58:20;;;;;;;6.40;4.78;;;17.30;99.90;;;;;;4951953;28;20047;-88
2021/06/07 06:00:49;;;;;;;8.13;4.70;;;17.40;99.90;;;;;;4951347;28;20035;-88
2021/06/07 06:03:14;;;;;;;8.18;4.65;;;17.40;99.90;;;;;;4952866;28;20035;-88
2021/06/07 06:05:41;;;;;;;11.02;5.05;;;17.50;99.90;;;;;;4950103;28;20133;-87
2021/06/07 06:08:08;;;;;;;8.63;4.85;;;17.50;99.90;;;;;;4958301;28;20047;-88
2021/06/07 06:10:35;;;;;;;7.25;4.75;;;17.50;99.90;;;;;;4952189;28;20015;-88
2021/06/07 06:13:01;;;;;;;7.15;4.75;;;17.60;99.90;;;;;;4958887;28;20030;-89
2021/06/07 06:15:27;;;;;;;7.47;5.10;;;17.60;99.90;;;;;;4967276;28;20015;-88
2021/06/07 06:17:54;;;;;;;7.00;4.68;;;17.60;99.90;;;;;;4959465;28;20063;-88
2021/06/07 06:20:21;;;;;;;6.45;4.95;;;17.70;99.90;;;;;;4953432;28;20026;-88
2021/06/07 06:22:48;;;;;;;7.95;5.10;;;17.80;99.90;;;;;;4958972;28;20353;-89
2021/06/07 06:25:16;;;;;;;6.60;4.85;;;17.80;99.90;;;;;;4970554;28;20357;-88
2021/06/07 06:27:42;;;;;;;7.07;4.43;;;17.90;99.90;;;;;;4952849;28;20089;-88
2021/06/07 06:30:17;;;;;;;7.07;4.40;;;18.00;99.90;;;;;;4957749;28;20023;-88
2021/06/07 06:32:44;;;;;;;6.63;4.38;;;18.10;99.90;;;;;;4960531;28;20023;-88
2021/06/07 06:35:11;;;;;;;8.07;5.05;;;18.20;99.90;;;;;;4973757;28;20103;-88
2021/06/07 06:37:36;;;;;;;11.57;4.78;;;18.20;99.90;;;;;;4948172;28;20034;-88
2021/06/07 06:40:04;;;;;;;8.35;4.45;;;18.30;99.90;;;;;;4951857;28;20023;-88
2021/06/07 06:42:29;;;;;;;10.48;4.65;;;18.40;99.90;;;;;;4954595;28;20408;-72
2021/06/07 06:44:55;;;;;;;6.57;4.13;;;18.50;99.90;;;;;;4952734;28;20019;-72
2021/06/07 06:47:21;;;;;;;9.00;4.07;;;18.50;99.90;;;;;;4947010;28;20400;-71
2021/06/07 06:49:47;;;;;;;7.05;4.15;;;18.50;99.90;;;;;;4952548;28;20028;-73
2021/06/07 06:52:12;;;;;;;7.95;4.38;;;18.60;99.90;;;;;;4953564;28;20019;-72
2021/06/07 06:54:38;;;;;;;6.88;3.78;;;18.60;99.90;;;;;;4952773;28;20051;-72
2021/06/07 06:57:04;;;;;;;10.48;4.25;;;18.70;99.90;;;;;;4953220;28;20055;-72
2021/06/07 06:59:30;;;;;;;8.55;3.95;;;18.80;99.90;;;;;;4957491;28;20029;-72
2021/06/07 07:01:57;;;;;;;5.75;3.45;;;18.80;99.90;;;;;;4953241;28;20027;-72
2021/06/07 07:04:23;;;;;;;8.70;3.70;;;18.90;99.90;;;;;;4953742;28;20516;-72
2021/06/07 07:06:48;;;;;;;9.15;4.22;;;19.00;99.90;;;;;;4953095;28;20031;-72
2021/06/07 07:09:14;;;;;;;6.50;4.10;;;19.10;99.90;;;;;;4954560;28;20028;-72
2021/06/07 07:11:40;;;;;;;7.30;3.35;;;19.20;99.90;;;;;;4953093;28;20098;-73
2021/06/07 07:14:05;;;;;;;5.63;3.13;;;19.30;99.90;;;;;;4955622;28;20106;-72
2021/06/07 07:16:31;;;;;;;6.30;3.40;;;19.30;99.90;;;;;;4953412;28;20027;-71
2021/06/07 07:19:00;;;;;;;5.72;3.40;;;19.40;99.90;;;;;;4960428;28;20019;-71
2021/06/07 07:21:26;;;;;;;7.15;3.10;;;19.50;99.90;;;;;;4954654;28;20172;-72
2021/06/07 07:23:52;;;;;;;11.93;3.47;;;19.60;99.90;;;;;;4958382;28;20068;-72
2021/06/07 07:26:17;;;;;;;4.70;2.97;;;19.70;99.90;;;;;;4954702;28;20453;-72
2021/06/07 07:28:43;;;;;;;6.30;2.83;;;19.80;99.90;;;;;;4960851;28;20027;-72
2021/06/07 07:31:09;;;;;;;6.95;2.80;;;19.80;99.90;;;;;;4952916;28;20035;-72
2021/06/07 07:33:39;;;;;;;4.10;2.63;;;19.90;99.90;;;;;;4963146;28;20074;-72
2021/06/07 07:36:07;;;;;;;6.78;3.20;;;20.00;99.90;;;;;;4954401;28;20019;-72
2021/06/07 07:38:33;;;;;;;5.78;2.90;;;20.00;99.90;;;;;;4963662;28;20023;-73
2021/06/07 07:40:59;;;;;;;5.38;2.78;;;20.10;99.90;;;;;;4954087;28;20044;-73
2021/06/07 07:43:25;;;;;;;6.85;2.80;;;20.10;99.90;;;;;;4956995;28;20039;-73
2021/06/07 07:45:51;;;;;;;5.85;3.00;;;20.20;99.90;;;;;;4953761;28;20146;-72
2021/06/07 07:48:17;;;;;;;4.32;2.45;;;20.30;99.90;;;;;;4970768;28;20091;-73
2021/06/07 07:50:42;;;;;;;7.10;2.80;;;20.30;99.90;;;;;;4954344;28;20468;-73
2021/06/07 07:53:08;;;;;;;7.38;3.05;;;20.30;99.90;;;;;;4959070;28;20030;-73
2021/06/07 07:55:34;;;;;;;5.15;2.70;;;20.40;99.90;;;;;;4960632;28;20020;-73
2021/06/07 07:58:04;;;;;;;5.90;3.25;;;20.30;99.90;;;;;;4959548;28;20090;-73
2021/06/07 08:00:30;;;;;;;3.90;2.70;;;20.30;99.90;;;;;;4953718;28;20027;-73
2021/06/07 08:02:59;;;;;;;7.65;2.92;;;20.40;99.90;;;;;;4960806;28;20066;-73
2021/06/07 08:05:25;;;;;;;6.30;2.20;;;20.50;99.90;;;;;;4954868;28;20023;-73
2021/06/07 08:07:52;;;;;;;5.07;2.58;;;20.70;99.90;;;;;;4960986;28;20126;-73
2021/06/07 08:10:17;;;;;;;3.35;2.40;;;20.70;99.90;;;;;;4956249;28;20120;-73
2021/06/07 08:12:45;;;;;;;4.05;2.72;;;20.80;99.90;;;;;;4955888;28;20027;-78
2021/06/07 08:15:11;;;;;;;5.05;2.65;;;20.80;99.90;;;;;;4954766;28;20027;-74
2021/06/07 08:17:37;;;;;;;5.93;2.45;;;20.90;99.90;;;;;;4955429;28;20016;-73
2021/06/07 08:20:08;;;;;;;5.40;2.35;;;21.00;99.90;;;;;;4955232;28;20063;-73
2021/06/07 08:22:34;;;;;;;3.70;2.08;;;21.00;99.90;;;;;;4955147;28;20047;-73
2021/06/07 08:25:00;;;;;;;3.47;1.77;;;21.10;99.80;;;;;;4955871;28;20034;-74
2021/06/07 08:27:27;;;;;;;5.30;1.70;;;21.10;99.20;;;;;;4955594;28;20020;-74
2021/06/07 08:29:53;;;;;;;6.47;1.90;;;21.30;99.00;;;;;;4956421;28;20035;-73
2021/06/07 08:32:19;;;;;;;2.92;1.92;;;21.30;99.30;;;;;;4954989;28;20369;-73
2021/06/07 08:34:44;;;;;;;3.90;1.73;;;21.40;99.10;;;;;;4957502;28;20176;-74
2021/06/07 08:37:10;;;;;;;5.60;2.30;;;21.50;98.50;;;;;;4955425;28;20424;-73
2021/06/07 08:39:36;;;;;;;5.63;2.42;;;21.60;98.50;;;;;;4952486;28;20031;-73
2021/06/07 08:42:02;;;;;;;6.47;2.45;;;21.60;99.50;;;;;;4954993;28;20023;-72
2021/06/07 08:44:28;;;;;;;11.13;3.38;;;21.60;99.30;;;;;;4953664;28;20110;-73
2021/06/07 08:46:54;;;;;;;5.85;2.17;;;21.70;99.70;;;;;;4955263;28;20114;-74
2021/06/07 08:49:21;;;;;;;5.93;3.40;;;21.70;99.40;;;;;;4954149;28;20049;-73
2021/06/07 08:51:47;;;;;;;7.38;2.90;;;21.70;99.90;;;;;;4955213;28;20023;-74
2021/06/07 08:54:13;;;;;;;6.57;4.00;;;21.70;99.90;;;;;;4955154;28;20035;-73
2021/06/07 08:56:40;;;;;;;7.38;3.90;;;21.70;99.90;;;;;;4954775;28;20591;-73
2021/06/07 08:59:06;;;;;;;5.95;3.60;;;21.50;99.90;;;;;;4951651;28;20462;-73
2021/06/07 09:01:31;;;;;;;10.82;3.63;;;21.50;99.90;;;;;;4968523;28;20062;-73
2021/06/07 09:04:18;;;;;;;7.80;3.50;;;21.60;99.90;;;;;;4955967;28;20122;-72
2021/06/07 09:06:46;;;;;;;7.28;3.35;;;21.60;99.90;;;;;;4955122;28;20023;-73
2021/06/07 09:09:14;;;;;;;6.50;3.78;;;21.70;99.90;;;;;;4956017;28;20391;-72
2021/06/07 09:11:56;;;;;;;10.05;3.10;;;21.70;99.90;;;;;;4954533;28;20023;-73
2021/06/07 09:14:33;;;;;;;8.02;4.25;;;21.70;99.90;;;;;;4956822;28;20023;-73
2021/06/07 09:17:00;;;;;;;5.50;2.80;;;21.80;99.90;;;;;;4943038;28;20046;-73
2021/06/07 09:19:30;;;;;;;6.82;2.78;;;21.80;99.60;;;;;;4953323;28;20490;-73
2021/06/07 09:22:24;;;;;;;5.78;3.30;;;21.90;99.10;;;;;;4954384;28;20507;-73
2021/06/07 09:25:03;;;;;;;3.47;2.40;;;22.00;99.50;;;;;;4947665;29;20035;-73
2021/06/07 09:27:28;;;;;;;4.53;2.70;;;22.00;98.60;;;;;;4956337;28;20102;-74
2021/06/07 09:29:54;;;;;;;3.35;2.35;;;22.00;98.40;;;;;;4966516;28;20043;-73
2021/06/07 09:32:21;;;;;;;5.85;2.85;;;22.00;99.40;;;;;;4953823;28;20444;-73
2021/06/07 09:35:05;;;;;;;3.85;2.28;;;22.10;98.90;;;;;;4957880;28;20042;-74
2021/06/07 09:37:30;;;;;;;4.00;2.28;;;22.20;97.70;;;;;;4951854;28;20023;-73
2021/06/07 09:40:17;;;;;;;4.68;2.70;;;22.40;97.10;;;;;;4965827;28;20106;-73
2021/06/07 09:43:03;;;;;;;5.05;2.63;;;22.30;97.50;;;;;;4953102;28;20035;-73
2021/06/07 09:45:54;;;;;;;3.78;1.75;;;22.40;96.70;;;;;;4951178;28;20033;-72
2021/06/07 09:48:27;;;;;;;4.05;1.95;;;22.30;95.50;;;;;;4962460;28;20038;-72
2021/06/07 09:50:56;;;;;;;6.53;2.10;;;22.30;95.10;;;;;;4951581;28;20055;-73
2021/06/07 09:53:51;;;;;;;4.20;2.22;;;22.10;96.20;;;;;;4960710;28;20038;-72
2021/06/07 09:56:18;;;;;;;6.13;1.92;;;21.90;95.50;;;;;;4951600;28;20059;-73
2021/06/07 09:58:46;;;;;;;5.18;2.25;;;21.80;96.00;;;;;;4961780;28;20027;-73
2021/06/07 10:01:14;;;;;;;6.18;1.90;;;21.70;95.60;;;;;;4965612;28;20070;-73
2021/06/07 10:03:43;;;;;;;4.55;1.73;;;21.60;94.90;;;;;;4959585;28;20456;-72
2021/06/07 10:06:20;;;;;;;5.13;1.90;;;21.50;95.50;;;;;;4955473;28;20392;-73
2021/06/07 10:08:49;;;;;;;5.40;2.00;;;21.50;96.00;;;;;;4955584;28;20554;-73
2021/06/07 10:11:20;;;;;;;4.45;1.73;;;21.60;95.00;;;;;;4951421;28;20070;-73
2021/06/07 10:13:46;;;;;;;17.85;8.23;;;21.60;94.70;;;;;;4956527;28;20030;-72
2021/06/07 10:16:11;;;;;;;78.05;32.28;;;21.70;94.60;;;;;;4951269;28;20012;-76
2021/06/07 10:18:37;;;;;;;29.35;13.80;;;21.60;94.60;;;;;;4958447;28;20038;-72
2021/06/07 10:21:05;;;;;;;5.28;2.67;;;21.70;95.00;;;;;;4960735;28;20106;-73
2021/06/07 10:23:33;;;;;;;3.65;1.70;;;21.90;94.70;;;;;;4960071;28;20352;-73
2021/06/07 10:26:02;;;;;;;2.17;1.50;;;22.10;93.70;;;;;;4951076;29;20556;-73
2021/06/07 10:28:30;;;;;;;4.60;1.27;;;22.20;92.00;;;;;;4957218;28;20501;-72
2021/06/07 10:30:59;;;;;;;1.88;1.00;;;22.20;90.00;;;;;;4951305;28;20034;-73
2021/06/07 10:33:36;;;;;;;1.95;1.30;;;22.40;87.20;;;;;;4961834;28;20116;-72
2021/06/07 10:36:20;;;;;;;2.35;1.30;;;22.50;86.20;;;;;;4951160;28;20027;-72
2021/06/07 10:38:47;;;;;;;3.05;1.30;;;22.70;80.70;;;;;;4958344;28;20055;-73
2021/06/07 10:41:22;;;;;;;2.95;1.75;;;22.90;82.10;;;;;;4951162;28;20027;-73
2021/06/07 10:43:53;;;;;;;3.40;1.83;;;23.10;81.20;;;;;;4953127;28;20035;-73
2021/06/07 10:46:25;;;;;;;6.32;1.88;;;23.10;79.30;;;;;;4951195;28;20445;-72
2021/06/07 10:48:52;;;;;;;2.65;1.50;;;23.00;79.70;;;;;;4960283;28;20031;-73
2021/06/07 10:51:22;;;;;;;7.13;2.00;;;23.00;78.60;;;;;;4952918;28;20024;-73
2021/06/07 10:53:50;;;;;;;2.05;1.35;;;23.10;76.60;;;;;;4964898;28;20042;-73
2021/06/07 10:56:16;;;;;;;1.80;0.98;;;23.40;76.60;;;;;;4955200;28;20229;-73
2021/06/07 10:58:59;;;;;;;3.10;0.98;;;23.50;74.10;;;;;;4965073;28;20205;-73
2021/06/07 11:01:51;;;;;;;3.20;1.45;;;23.70;74.30;;;;;;4955103;28;20023;-73
2021/06/07 11:04:36;;;;;;;4.57;1.60;;;23.90;74.60;;;;;;4962875;28;20314;-73
2021/06/07 11:07:08;;;;;;;;;;;24.10;71.90;;;;;;4957249;28;20046;-73
2021/06/07 11:09:34;;;;;;;2.70;1.08;;;24.10;75.70;;;;;;4957799;28;20521;-73
2021/06/07 11:12:03;;;;;;;2.85;1.20;;;24.00;70.70;;;;;;4956848;28;20278;-73
2021/06/07 11:14:29;;;;;;;2.17;0.90;;;23.90;70.60;;;;;;4959176;28;20185;-73
2021/06/07 11:16:55;;;;;;;4.68;1.70;;;24.00;71.40;;;;;;4956797;28;20034;-73
2021/06/07 11:19:20;;;;;;;3.53;1.10;;;24.10;70.90;;;;;;4954261;28;20027;-72
2021/06/07 11:21:56;;;;;;;2.67;1.38;;;24.10;69.60;;;;;;4954176;28;20043;-73
2021/06/07 11:24:34;;;;;;;4.43;0.95;;;24.20;70.30;;;;;;4953413;29;20035;-73
2021/06/07 11:27:04;;;;;;;1.98;0.98;;;24.30;66.70;;;;;;4954221;28;20100;-73
2021/06/07 11:29:30;;;;;;;4.82;1.38;;;24.20;66.40;;;;;;4953346;28;20531;-73
2021/06/07 11:32:02;;;;;;;3.72;1.33;;;24.20;64.40;;;;;;4953971;28;20468;-74
2021/06/07 11:34:46;;;;;;;3.03;1.00;;;24.20;65.10;;;;;;4953884;28;20023;-73
2021/06/07 11:37:14;;;;;;;4.38;1.40;;;24.20;65.30;;;;;;4953756;28;20055;-73
2021/06/07 11:39:43;;;;;;;2.22;1.00;;;24.40;65.10;;;;;;4951742;29;20019;-73
2021/06/07 11:42:22;;;;;;;2.80;1.10;;;24.70;64.10;;;;;;4953502;28;20035;-73
2021/06/07 11:45:11;;;;;;;3.25;1.10;;;24.80;61.70;;;;;;4953457;28;20554;-73
2021/06/07 11:47:36;;;;;;;3.08;1.20;;;24.80;63.40;;;;;;4958666;28;20038;-77
2021/06/07 11:50:02;;;;;;;2.85;1.17;;;24.90;65.50;;;;;;4958059;28;20023;-73
2021/06/07 11:52:47;;;;;;;3.30;1.38;;;25.10;63.40;;;;;;4952556;28;20101;-72
2021/06/07 11:55:33;;;;;;;3.05;1.30;;;25.30;62.60;;;;;;4956965;28;20018;-72
2021/06/07 11:58:09;;;;;;;4.13;1.75;;;25.40;60.80;;;;;;4957693;28;20210;-73
2021/06/07 12:00:43;;;;;;;3.60;1.40;;;25.20;61.90;;;;;;4958648;28;20071;-72
2021/06/07 12:03:11;;;;;;;5.32;1.50;;;25.30;61.20;;;;;;4952373;28;20377;-73
2021/06/07 12:05:38;;;;;;;2.60;0.98;;;25.10;61.60;;;;;;4953524;28;20110;-72
2021/06/07 12:08:12;;;;;;;3.75;1.60;;;25.30;62.70;;;;;;4957061;28;20023;-72
2021/06/07 12:10:40;;;;;;;4.50;1.27;;;25.50;63.00;;;;;;4953438;28;20023;-72
2021/06/07 12:13:21;;;;;;;4.78;1.27;;;25.50;62.00;;;;;;4958047;28;20031;-72
2021/06/07 12:16:01;;;;;;;9.35;1.25;;;25.60;59.50;;;;;;4946306;29;20027;-72
2021/06/07 12:18:48;;;;;;;3.85;1.15;;;25.80;59.60;;;;;;4958600;28;20082;-72
2021/06/07 12:21:16;;;;;;;4.63;1.20;;;25.80;57.80;;;;;;4952972;28;20031;-72
2021/06/07 12:23:53;;;;;;;3.92;1.35;;;25.90;59.10;;;;;;4957658;28;20035;-72
2021/06/07 12:29:32;;;;;;;2.55;1.20;;;26.30;57.80;;;;;;4959388;28;20034;-73
2021/06/07 12:32:07;;;;;;;2.25;1.20;;;26.40;57.40;;;;;;4969449;28;20499;-72
2021/06/07 12:34:37;;;;;;;3.00;1.30;;;26.30;58.50;;;;;;4953794;28;20016;-73
2021/06/07 12:37:03;;;;;;;3.53;1.38;;;26.70;58.30;;;;;;4955046;28;20031;-73
2021/06/07 12:39:29;;;;;;;5.75;1.70;;;26.80;57.10;;;;;;4956383;28;20046;-73
2021/06/07 12:41:55;;;;;;;6.47;1.33;;;26.80;57.80;;;;;;4955477;28;20054;-72
2021/06/07 12:44:24;;;;;;;6.68;1.65;;;26.90;58.80;;;;;;4957333;28;20039;-75
2021/06/07 12:46:55;;;;;;;7.20;1.50;;;27.10;56.20;;;;;;4954339;28;20045;-73
2021/06/07 12:49:23;;;;;;;2.45;1.50;;;27.00;54.70;;;;;;4955259;28;20086;-73
2021/06/07 12:52:04;;;;;;;3.35;1.23;;;27.10;55.00;;;;;;4953512;28;20023;-72
2021/06/07 12:54:31;;;;;;;3.55;1.30;;;27.30;56.30;;;;;;4954017;28;20391;-73